sensor_id;sensor_type;location;lat;lon;timestamp;temperature;humidity
52189;DHT22;38162;45.926;13.608;2024-03-08T00:00:09;9.10;99.90
52189;DHT22;38162;45.926;13.608;2024-03-08T00:02:40;9.10;99.90
52189;DHT22;38162;45.926;13.608;2024-03-08T00:05:08;9.10;99.90
52189;DHT22;38162;45.926;13.608;2024-03-08T00:07:35;9.10;99.90
52189;DHT22;38162;45.926;13.608;2024-03-08T00:10:02;9.10;99.90
52189;DHT22;38162;45.926;13.608;2024-03-08T00:12:28;9.10;99.90
52189;DHT22;38162;45.926;13.608;2024-03-08T00:14:54;9.10;99.90
52189;DHT22;38162;45.926;13.608;2024-03-08T00:17:21;9.10;99.90
52189;DHT22;38162;45.926;13.608;2024-03-08T00:19:49;9.10;99.90
52189;DHT22;38162;45.926;13.608;2024-03-08T00:22:16;9.10;99.90
52189;DHT22;38162;45.926;13.608;2024-03-08T00:24:42;9.10;99.90
52189;DHT22;38162;45.926;13.608;2024-03-08T00:27:08;9.10;99.90
52189;DHT22;38162;45.926;13.608;2024-03-08T00:29:34;9.10;99.90
52189;DHT22;38162;45.926;13.608;2024-03-08T00:32:00;9.10;99.90
52189;DHT22;38162;45.926;13.608;2024-03-08T00:34:27;9.10;99.90
52189;DHT22;38162;45.926;13.608;2024-03-08T00:36:52;9.10;99.90
52189;DHT22;38162;45.926;13.608;2024-03-08T00:39:18;9.10;99.90
52189;DHT22;38162;45.926;13.608;2024-03-08T00:41:47;9.00;99.90
52189;DHT22;38162;45.926;13.608;2024-03-08T00:44:13;9.00;99.90
52189;DHT22;38162;45.926;13.608;2024-03-08T00:46:39;9.00;99.90
52189;DHT22;38162;45.926;13.608;2024-03-08T00:49:05;9.00;99.90
52189;DHT22;38162;45.926;13.608;2024-03-08T00:51:32;9.00;99.90
52189;DHT22;38162;45.926;13.608;2024-03-08T00:57:03;9.00;99.90
52189;DHT22;38162;45.926;13.608;2024-03-08T01:07:24;9.00;99.90
52189;DHT22;38162;45.926;13.608;2024-03-08T01:20:59;8.90;99.90
52189;DHT22;38162;45.926;13.608;2024-03-08T01:23:36;8.90;99.90
52189;DHT22;38162;45.926;13.608;2024-03-08T01:26:05;8.90;99.90
52189;DHT22;38162;45.926;13.608;2024-03-08T01:28:30;8.80;99.90
52189;DHT22;38162;45.926;13.608;2024-03-08T01:30:57;8.80;99.90
52189;DHT22;38162;45.926;13.608;2024-03-08T01:33:24;8.80;99.90
52189;DHT22;38162;45.926;13.608;2024-03-08T01:35:51;8.90;99.90
52189;DHT22;38162;45.926;13.608;2024-03-08T01:38:18;8.90;99.90
52189;DHT22;38162;45.926;13.608;2024-03-08T01:40:44;8.80;99.90
52189;DHT22;38162;45.926;13.608;2024-03-08T01:43:21;8.90;99.90
52189;DHT22;38162;45.926;13.608;2024-03-08T01:45:47;8.90;99.90
52189;DHT22;38162;45.926;13.608;2024-03-08T01:48:14;8.80;99.90
52189;DHT22;38162;45.926;13.608;2024-03-08T01:50:40;8.80;99.90
52189;DHT22;38162;45.926;13.608;2024-03-08T01:53:07;8.80;99.90
52189;DHT22;38162;45.926;13.608;2024-03-08T01:55:36;8.80;99.90
52189;DHT22;38162;45.926;13.608;2024-03-08T01:58:05;8.80;99.90
52189;DHT22;38162;45.926;13.608;2024-03-08T02:00:32;8.90;99.90
52189;DHT22;38162;45.926;13.608;2024-03-08T02:02:59;8.80;99.90
52189;DHT22;38162;45.926;13.608;2024-03-08T02:05:25;8.80;99.90
52189;DHT22;38162;45.926;13.608;2024-03-08T02:07:51;8.80;99.90
52189;DHT22;38162;45.926;13.608;2024-03-08T02:10:17;8.80;99.90
52189;DHT22;38162;45.926;13.608;2024-03-08T02:12:44;8.80;99.90
52189;DHT22;38162;45.926;13.608;2024-03-08T02:15:09;8.80;99.90
52189;DHT22;38162;45.926;13.608;2024-03-08T02:17:36;8.80;99.90
52189;DHT22;38162;45.926;13.608;2024-03-08T02:20:02;8.80;99.90
52189;DHT22;38162;45.926;13.608;2024-03-08T02:22:30;8.80;99.90
52189;DHT22;38162;45.926;13.608;2024-03-08T02:24:56;8.80;99.90
52189;DHT22;38162;45.926;13.608;2024-03-08T02:27:25;8.80;99.90
52189;DHT22;38162;45.926;13.608;2024-03-08T02:29:55;8.80;99.90
52189;DHT22;38162;45.926;13.608;2024-03-08T02:36:11;8.80;99.90
52189;DHT22;38162;45.926;13.608;2024-03-08T02:52:40;8.80;99.90
52189;DHT22;38162;45.926;13.608;2024-03-08T02:55:27;8.80;99.90
52189;DHT22;38162;45.926;13.608;2024-03-08T02:58:26;8.70;99.90
52189;DHT22;38162;45.926;13.608;2024-03-08T03:01:03;8.70;99.90
52189;DHT22;38162;45.926;13.608;2024-03-08T03:03:29;8.70;99.90
52189;DHT22;38162;45.926;13.608;2024-03-08T03:05:55;8.70;99.90
52189;DHT22;38162;45.926;13.608;2024-03-08T03:08:21;8.70;99.90
52189;DHT22;38162;45.926;13.608;2024-03-08T03:10:47;8.70;99.90
52189;DHT22;38162;45.926;13.608;2024-03-08T03:13:13;8.70;99.90
52189;DHT22;38162;45.926;13.608;2024-03-08T03:15:46;8.70;99.90
52189;DHT22;38162;45.926;13.608;2024-03-08T03:18:12;8.70;99.90
52189;DHT22;38162;45.926;13.608;2024-03-08T03:20:37;8.70;99.90
52189;DHT22;38162;45.926;13.608;2024-03-08T03:23:08;8.70;99.90
52189;DHT22;38162;45.926;13.608;2024-03-08T03:25:35;8.70;99.90
52189;DHT22;38162;45.926;13.608;2024-03-08T03:28:04;8.70;99.90
52189;DHT22;38162;45.926;13.608;2024-03-08T03:30:30;8.70;99.90
52189;DHT22;38162;45.926;13.608;2024-03-08T03:32:59;8.60;99.90
52189;DHT22;38162;45.926;13.608;2024-03-08T03:35:32;8.60;99.90
52189;DHT22;38162;45.926;13.608;2024-03-08T03:37:58;8.60;99.90
52189;DHT22;38162;45.926;13.608;2024-03-08T03:40:31;8.60;99.90
52189;DHT22;38162;45.926;13.608;2024-03-08T03:42:57;8.60;99.90
52189;DHT22;38162;45.926;13.608;2024-03-08T03:45:24;8.60;99.90
52189;DHT22;38162;45.926;13.608;2024-03-08T03:47:49;8.60;99.90
52189;DHT22;38162;45.926;13.608;2024-03-08T03:50:16;8.60;99.90
52189;DHT22;38162;45.926;13.608;2024-03-08T03:52:41;8.50;99.90
52189;DHT22;38162;45.926;13.608;2024-03-08T03:55:08;8.50;99.90
52189;DHT22;38162;45.926;13.608;2024-03-08T03:57:34;8.50;99.90
52189;DHT22;38162;45.926;13.608;2024-03-08T04:00:00;8.50;99.90
52189;DHT22;38162;45.926;13.608;2024-03-08T04:02:28;8.50;99.90
52189;DHT22;38162;45.926;13.608;2024-03-08T04:04:54;8.60;99.90
52189;DHT22;38162;45.926;13.608;2024-03-08T04:07:20;8.50;99.90
52189;DHT22;38162;45.926;13.608;2024-03-08T04:09:46;8.60;99.90
52189;DHT22;38162;45.926;13.608;2024-03-08T04:31:59;8.50;99.70
52189;DHT22;38162;45.926;13.608;2024-03-08T04:38:14;8.40;99.50
52189;DHT22;38162;45.926;13.608;2024-03-08T04:40:41;8.40;99.60
52189;DHT22;38162;45.926;13.608;2024-03-08T04:43:07;8.40;99.70
52189;DHT22;38162;45.926;13.608;2024-03-08T04:45:34;8.40;99.30
52189;DHT22;38162;45.926;13.608;2024-03-08T04:48:00;8.40;99.40
52189;DHT22;38162;45.926;13.608;2024-03-08T04:50:26;8.40;99.50
52189;DHT22;38162;45.926;13.608;2024-03-08T04:52:55;8.40;99.60
52189;DHT22;38162;45.926;13.608;2024-03-08T04:55:20;8.40;99.70
52189;DHT22;38162;45.926;13.608;2024-03-08T04:57:48;8.40;99.90
52189;DHT22;38162;45.926;13.608;2024-03-08T05:00:14;8.30;99.90
52189;DHT22;38162;45.926;13.608;2024-03-08T05:02:41;8.30;99.50
52189;DHT22;38162;45.926;13.608;2024-03-08T05:05:07;8.30;99.50
52189;DHT22;38162;45.926;13.608;2024-03-08T05:07:35;8.30;99.70
52189;DHT22;38162;45.926;13.608;2024-03-08T05:10:00;8.30;99.50
52189;DHT22;38162;45.926;13.608;2024-03-08T05:12:28;8.30;99.80
52189;DHT22;38162;45.926;13.608;2024-03-08T05:14:53;8.30;99.90
52189;DHT22;38162;45.926;13.608;2024-03-08T05:17:19;8.30;99.90
52189;DHT22;38162;45.926;13.608;2024-03-08T05:19:45;8.20;99.70
52189;DHT22;38162;45.926;13.608;2024-03-08T05:22:11;8.30;99.70
52189;DHT22;38162;45.926;13.608;2024-03-08T05:24:37;8.30;99.50
52189;DHT22;38162;45.926;13.608;2024-03-08T05:27:02;8.30;99.30
52189;DHT22;38162;45.926;13.608;2024-03-08T05:29:29;8.30;99.40
52189;DHT22;38162;45.926;13.608;2024-03-08T05:31:55;8.30;99.10
52189;DHT22;38162;45.926;13.608;2024-03-08T05:34:22;8.30;98.80
52189;DHT22;38162;45.926;13.608;2024-03-08T05:36:49;8.30;98.80
52189;DHT22;38162;45.926;13.608;2024-03-08T05:39:17;8.30;98.50
52189;DHT22;38162;45.926;13.608;2024-03-08T05:41:43;8.30;98.50
52189;DHT22;38162;45.926;13.608;2024-03-08T05:44:10;8.30;98.30
52189;DHT22;38162;45.926;13.608;2024-03-08T05:46:36;8.30;98.40
52189;DHT22;38162;45.926;13.608;2024-03-08T05:49:06;8.30;98.30
52189;DHT22;38162;45.926;13.608;2024-03-08T05:55:28;8.20;98.00
52189;DHT22;38162;45.926;13.608;2024-03-08T06:01:30;8.20;98.10
52189;DHT22;38162;45.926;13.608;2024-03-08T06:04:02;8.20;98.20
52189;DHT22;38162;45.926;13.608;2024-03-08T06:06:38;8.20;98.30
52189;DHT22;38162;45.926;13.608;2024-03-08T06:09:08;8.20;98.10
52189;DHT22;38162;45.926;13.608;2024-03-08T06:11:43;8.20;97.80
52189;DHT22;38162;45.926;13.608;2024-03-08T06:17:36;8.20;97.90
52189;DHT22;38162;45.926;13.608;2024-03-08T06:20:03;8.20;97.30
52189;DHT22;38162;45.926;13.608;2024-03-08T06:22:30;8.20;97.20
52189;DHT22;38162;45.926;13.608;2024-03-08T06:24:56;8.20;97.20
52189;DHT22;38162;45.926;13.608;2024-03-08T06:27:22;8.20;97.40
52189;DHT22;38162;45.926;13.608;2024-03-08T06:29:48;8.20;97.50
52189;DHT22;38162;45.926;13.608;2024-03-08T06:32:14;8.20;97.70
52189;DHT22;38162;45.926;13.608;2024-03-08T06:34:41;8.20;97.40
52189;DHT22;38162;45.926;13.608;2024-03-08T06:37:07;8.20;97.40
52189;DHT22;38162;45.926;13.608;2024-03-08T06:39:32;8.10;97.40
52189;DHT22;38162;45.926;13.608;2024-03-08T06:41:59;8.10;97.60
52189;DHT22;38162;45.926;13.608;2024-03-08T06:44:25;8.10;97.60
52189;DHT22;38162;45.926;13.608;2024-03-08T06:46:51;8.10;98.10
52189;DHT22;38162;45.926;13.608;2024-03-08T06:49:17;8.20;97.70
52189;DHT22;38162;45.926;13.608;2024-03-08T06:51:43;8.20;97.50
52189;DHT22;38162;45.926;13.608;2024-03-08T06:54:08;8.20;97.40
52189;DHT22;38162;45.926;13.608;2024-03-08T06:56:35;8.20;97.50
52189;DHT22;38162;45.926;13.608;2024-03-08T06:59:01;8.20;97.50
52189;DHT22;38162;45.926;13.608;2024-03-08T07:01:29;8.20;97.20
52189;DHT22;38162;45.926;13.608;2024-03-08T07:03:58;8.20;97.20
52189;DHT22;38162;45.926;13.608;2024-03-08T07:06:23;8.20;97.30
52189;DHT22;38162;45.926;13.608;2024-03-08T07:08:49;8.30;97.20
52189;DHT22;38162;45.926;13.608;2024-03-08T07:11:15;8.30;97.10
52189;DHT22;38162;45.926;13.608;2024-03-08T07:13:47;8.40;96.90
52189;DHT22;38162;45.926;13.608;2024-03-08T07:16:12;8.30;96.90
52189;DHT22;38162;45.926;13.608;2024-03-08T07:18:38;8.40;97.30
52189;DHT22;38162;45.926;13.608;2024-03-08T07:21:09;8.40;97.10
52189;DHT22;38162;45.926;13.608;2024-03-08T07:23:41;8.40;96.90
52189;DHT22;38162;45.926;13.608;2024-03-08T07:26:28;8.40;96.60
52189;DHT22;38162;45.926;13.608;2024-03-08T07:29:49;8.40;96.70
52189;DHT22;38162;45.926;13.608;2024-03-08T07:32:21;8.40;96.60
52189;DHT22;38162;45.926;13.608;2024-03-08T07:34:58;8.40;96.60
52189;DHT22;38162;45.926;13.608;2024-03-08T07:37:24;8.40;96.90
52189;DHT22;38162;45.926;13.608;2024-03-08T07:39:50;8.40;97.10
52189;DHT22;38162;45.926;13.608;2024-03-08T07:42:16;8.40;97.20
52189;DHT22;38162;45.926;13.608;2024-03-08T07:44:42;8.40;97.30
52189;DHT22;38162;45.926;13.608;2024-03-08T07:47:09;8.40;97.30
52189;DHT22;38162;45.926;13.608;2024-03-08T07:52:51;8.40;97.10
52189;DHT22;38162;45.926;13.608;2024-03-08T07:55:18;8.40;97.10
52189;DHT22;38162;45.926;13.608;2024-03-08T07:57:44;8.50;97.10
52189;DHT22;38162;45.926;13.608;2024-03-08T08:00:11;8.40;97.00
52189;DHT22;38162;45.926;13.608;2024-03-08T08:02:43;8.50;97.00
52189;DHT22;38162;45.926;13.608;2024-03-08T08:05:11;8.50;97.20
52189;DHT22;38162;45.926;13.608;2024-03-08T08:07:37;8.50;97.30
52189;DHT22;38162;45.926;13.608;2024-03-08T08:10:02;8.50;97.30
52189;DHT22;38162;45.926;13.608;2024-03-08T08:12:28;8.50;97.20
52189;DHT22;38162;45.926;13.608;2024-03-08T08:14:54;8.60;97.30
52189;DHT22;38162;45.926;13.608;2024-03-08T08:17:20;8.60;97.20
52189;DHT22;38162;45.926;13.608;2024-03-08T08:19:46;8.60;97.20
52189;DHT22;38162;45.926;13.608;2024-03-08T08:22:11;8.60;97.10
52189;DHT22;38162;45.926;13.608;2024-03-08T08:24:37;8.60;97.30
52189;DHT22;38162;45.926;13.608;2024-03-08T08:27:04;8.70;97.20
52189;DHT22;38162;45.926;13.608;2024-03-08T08:29:29;8.70;96.60
52189;DHT22;38162;45.926;13.608;2024-03-08T08:31:58;8.70;96.50
52189;DHT22;38162;45.926;13.608;2024-03-08T08:34:25;8.70;96.30
52189;DHT22;38162;45.926;13.608;2024-03-08T08:36:52;8.70;96.20
52189;DHT22;38162;45.926;13.608;2024-03-08T08:39:18;8.80;96.60
52189;DHT22;38162;45.926;13.608;2024-03-08T08:41:44;8.70;96.40
52189;DHT22;38162;45.926;13.608;2024-03-08T08:44:10;8.80;96.40
52189;DHT22;38162;45.926;13.608;2024-03-08T08:46:38;8.80;96.30
52189;DHT22;38162;45.926;13.608;2024-03-08T08:49:05;8.80;96.40
52189;DHT22;38162;45.926;13.608;2024-03-08T08:51:32;8.80;96.30
52189;DHT22;38162;45.926;13.608;2024-03-08T08:53:59;8.90;96.10
52189;DHT22;38162;45.926;13.608;2024-03-08T08:56:25;8.90;96.10
52189;DHT22;38162;45.926;13.608;2024-03-08T08:58:52;8.90;96.40
52189;DHT22;38162;45.926;13.608;2024-03-08T09:01:19;8.90;96.20
52189;DHT22;38162;45.926;13.608;2024-03-08T09:11:35;8.90;95.70
52189;DHT22;38162;45.926;13.608;2024-03-08T09:18:39;8.90;95.70
52189;DHT22;38162;45.926;13.608;2024-03-08T09:24:45;8.90;95.40
52189;DHT22;38162;45.926;13.608;2024-03-08T09:27:12;8.90;95.50
52189;DHT22;38162;45.926;13.608;2024-03-08T09:29:52;8.90;95.30
52189;DHT22;38162;45.926;13.608;2024-03-08T09:32:18;8.80;95.50
52189;DHT22;38162;45.926;13.608;2024-03-08T09:34:44;8.80;95.80
52189;DHT22;38162;45.926;13.608;2024-03-08T09:37:10;8.80;96.20
52189;DHT22;38162;45.926;13.608;2024-03-08T09:39:35;8.80;96.00
52189;DHT22;38162;45.926;13.608;2024-03-08T09:42:02;8.80;96.10
52189;DHT22;38162;45.926;13.608;2024-03-08T09:44:28;8.80;96.30
52189;DHT22;38162;45.926;13.608;2024-03-08T09:46:58;8.80;96.30
52189;DHT22;38162;45.926;13.608;2024-03-08T09:49:24;8.90;96.00
52189;DHT22;38162;45.926;13.608;2024-03-08T09:51:50;8.90;95.70
52189;DHT22;38162;45.926;13.608;2024-03-08T09:54:17;8.90;95.20
52189;DHT22;38162;45.926;13.608;2024-03-08T09:56:47;8.90;95.60
52189;DHT22;38162;45.926;13.608;2024-03-08T09:59:14;8.90;95.70
52189;DHT22;38162;45.926;13.608;2024-03-08T10:01:46;8.90;95.90
52189;DHT22;38162;45.926;13.608;2024-03-08T10:04:12;9.00;96.10
52189;DHT22;38162;45.926;13.608;2024-03-08T10:06:40;9.00;96.40
52189;DHT22;38162;45.926;13.608;2024-03-08T10:09:06;9.00;96.50
52189;DHT22;38162;45.926;13.608;2024-03-08T10:11:33;9.00;96.60
52189;DHT22;38162;45.926;13.608;2024-03-08T10:14:00;9.00;96.70
52189;DHT22;38162;45.926;13.608;2024-03-08T10:16:30;9.00;96.90
52189;DHT22;38162;45.926;13.608;2024-03-08T10:18:59;9.10;97.00
52189;DHT22;38162;45.926;13.608;2024-03-08T10:21:26;9.10;97.00
52189;DHT22;38162;45.926;13.608;2024-03-08T10:23:52;9.20;97.30
52189;DHT22;38162;45.926;13.608;2024-03-08T10:26:19;9.20;97.20
52189;DHT22;38162;45.926;13.608;2024-03-08T10:28:48;9.20;97.10
52189;DHT22;38162;45.926;13.608;2024-03-08T10:31:15;9.20;96.80
52189;DHT22;38162;45.926;13.608;2024-03-08T10:33:41;9.20;96.80
52189;DHT22;38162;45.926;13.608;2024-03-08T10:36:08;9.30;97.00
52189;DHT22;38162;45.926;13.608;2024-03-08T10:38:41;9.30;97.20
52189;DHT22;38162;45.926;13.608;2024-03-08T10:41:11;9.30;97.20
52189;DHT22;38162;45.926;13.608;2024-03-08T10:48:05;9.30;97.60
52189;DHT22;38162;45.926;13.608;2024-03-08T10:50:38;9.40;97.90
52189;DHT22;38162;45.926;13.608;2024-03-08T11:00:11;9.40;97.20
52189;DHT22;38162;45.926;13.608;2024-03-08T11:03:03;9.30;96.90
52189;DHT22;38162;45.926;13.608;2024-03-08T11:09:36;9.30;96.90
52189;DHT22;38162;45.926;13.608;2024-03-08T11:12:25;9.30;96.90
52189;DHT22;38162;45.926;13.608;2024-03-08T11:15:09;9.30;97.20
52189;DHT22;38162;45.926;13.608;2024-03-08T11:20:10;9.20;98.20
52189;DHT22;38162;45.926;13.608;2024-03-08T11:22:42;9.20;98.50
52189;DHT22;38162;45.926;13.608;2024-03-08T11:25:35;9.20;98.60
52189;DHT22;38162;45.926;13.608;2024-03-08T11:28:23;9.30;98.80
52189;DHT22;38162;45.926;13.608;2024-03-08T11:33:31;9.20;99.10
52189;DHT22;38162;45.926;13.608;2024-03-08T11:38:32;9.20;99.20
52189;DHT22;38162;45.926;13.608;2024-03-08T11:40:58;9.20;99.20
52189;DHT22;38162;45.926;13.608;2024-03-08T11:43:24;9.20;99.90
52189;DHT22;38162;45.926;13.608;2024-03-08T11:45:50;9.20;99.90
52189;DHT22;38162;45.926;13.608;2024-03-08T11:48:16;9.20;99.90
52189;DHT22;38162;45.926;13.608;2024-03-08T11:50:42;9.20;99.90
52189;DHT22;38162;45.926;13.608;2024-03-08T11:53:08;9.30;99.90
52189;DHT22;38162;45.926;13.608;2024-03-08T11:55:34;9.30;99.80
52189;DHT22;38162;45.926;13.608;2024-03-08T11:58:02;9.30;99.90
52189;DHT22;38162;45.926;13.608;2024-03-08T12:00:28;9.30;99.80
52189;DHT22;38162;45.926;13.608;2024-03-08T12:03:04;9.30;99.40
52189;DHT22;38162;45.926;13.608;2024-03-08T12:05:30;9.30;99.60
52189;DHT22;38162;45.926;13.608;2024-03-08T12:08:00;9.30;99.30
52189;DHT22;38162;45.926;13.608;2024-03-08T12:10:26;9.30;99.50
52189;DHT22;38162;45.926;13.608;2024-03-08T12:12:54;9.20;99.90
52189;DHT22;38162;45.926;13.608;2024-03-08T12:15:23;9.20;99.90
52189;DHT22;38162;45.926;13.608;2024-03-08T12:17:51;9.20;99.90
52189;DHT22;38162;45.926;13.608;2024-03-08T12:40:13;9.30;99.90
52189;DHT22;38162;45.926;13.608;2024-03-08T12:49:59;9.30;99.90
52189;DHT22;38162;45.926;13.608;2024-03-08T12:52:25;9.30;99.90
52189;DHT22;38162;45.926;13.608;2024-03-08T12:54:51;9.40;99.90
52189;DHT22;38162;45.926;13.608;2024-03-08T12:57:17;9.30;99.90
52189;DHT22;38162;45.926;13.608;2024-03-08T12:59:43;9.40;99.90
52189;DHT22;38162;45.926;13.608;2024-03-08T13:02:09;9.40;99.90
52189;DHT22;38162;45.926;13.608;2024-03-08T13:04:36;9.40;99.90
52189;DHT22;38162;45.926;13.608;2024-03-08T13:07:02;9.40;99.90
52189;DHT22;38162;45.926;13.608;2024-03-08T13:09:28;9.40;99.90
52189;DHT22;38162;45.926;13.608;2024-03-08T13:11:54;9.50;99.90
52189;DHT22;38162;45.926;13.608;2024-03-08T13:14:21;9.50;99.90
52189;DHT22;38162;45.926;13.608;2024-03-08T13:16:47;9.50;99.90
52189;DHT22;38162;45.926;13.608;2024-03-08T13:19:13;9.50;99.90
52189;DHT22;38162;45.926;13.608;2024-03-08T13:21:39;9.40;99.90
52189;DHT22;38162;45.926;13.608;2024-03-08T13:24:05;9.40;99.90
52189;DHT22;38162;45.926;13.608;2024-03-08T13:26:31;9.40;99.90
52189;DHT22;38162;45.926;13.608;2024-03-08T13:28:59;9.40;99.90
52189;DHT22;38162;45.926;13.608;2024-03-08T13:31:25;9.40;99.90
52189;DHT22;38162;45.926;13.608;2024-03-08T13:33:51;9.30;99.90
52189;DHT22;38162;45.926;13.608;2024-03-08T13:36:23;9.30;99.90
52189;DHT22;38162;45.926;13.608;2024-03-08T13:38:54;9.30;99.90
52189;DHT22;38162;45.926;13.608;2024-03-08T13:41:20;9.30;99.90
52189;DHT22;38162;45.926;13.608;2024-03-08T13:43:50;9.30;99.90
52189;DHT22;38162;45.926;13.608;2024-03-08T13:46:16;9.30;99.90
52189;DHT22;38162;45.926;13.608;2024-03-08T13:48:42;9.30;99.90
52189;DHT22;38162;45.926;13.608;2024-03-08T13:51:08;9.30;99.90
52189;DHT22;38162;45.926;13.608;2024-03-08T13:53:40;9.20;99.90
52189;DHT22;38162;45.926;13.608;2024-03-08T13:56:07;9.30;99.90
52189;DHT22;38162;45.926;13.608;2024-03-08T13:58:56;9.20;99.90
52189;DHT22;38162;45.926;13.608;2024-03-08T14:01:52;9.20;99.90
52189;DHT22;38162;45.926;13.608;2024-03-08T14:05:04;9.20;99.90
52189;DHT22;38162;45.926;13.608;2024-03-08T14:14:37;9.20;99.90
52189;DHT22;38162;45.926;13.608;2024-03-08T14:24:12;9.10;99.90
52189;DHT22;38162;45.926;13.608;2024-03-08T14:26:38;9.10;99.90
52189;DHT22;38162;45.926;13.608;2024-03-08T14:29:07;9.10;99.90
52189;DHT22;38162;45.926;13.608;2024-03-08T14:31:33;9.10;99.90
52189;DHT22;38162;45.926;13.608;2024-03-08T14:33:59;9.10;99.90
52189;DHT22;38162;45.926;13.608;2024-03-08T14:36:25;9.10;99.90
52189;DHT22;38162;45.926;13.608;2024-03-08T14:38:52;9.10;99.90
52189;DHT22;38162;45.926;13.608;2024-03-08T14:41:18;9.10;99.90
52189;DHT22;38162;45.926;13.608;2024-03-08T14:43:44;9.10;99.90
52189;DHT22;38162;45.926;13.608;2024-03-08T14:46:13;9.20;99.90
52189;DHT22;38162;45.926;13.608;2024-03-08T14:48:51;9.20;99.90
52189;DHT22;38162;45.926;13.608;2024-03-08T14:51:18;9.10;99.90
52189;DHT22;38162;45.926;13.608;2024-03-08T14:53:49;9.20;99.90
52189;DHT22;38162;45.926;13.608;2024-03-08T14:56:15;9.10;99.90
52189;DHT22;38162;45.926;13.608;2024-03-08T14:58:45;9.10;99.90
52189;DHT22;38162;45.926;13.608;2024-03-08T15:01:12;9.20;99.90
52189;DHT22;38162;45.926;13.608;2024-03-08T15:03:41;9.10;99.90
52189;DHT22;38162;45.926;13.608;2024-03-08T15:06:10;9.10;99.90
52189;DHT22;38162;45.926;13.608;2024-03-08T15:08:37;9.10;99.90
52189;DHT22;38162;45.926;13.608;2024-03-08T15:11:04;9.20;99.90
52189;DHT22;38162;45.926;13.608;2024-03-08T15:13:34;9.20;99.90
52189;DHT22;38162;45.926;13.608;2024-03-08T15:16:13;9.20;99.90
52189;DHT22;38162;45.926;13.608;2024-03-08T15:18:44;9.20;99.90
52189;DHT22;38162;45.926;13.608;2024-03-08T15:21:14;9.20;99.90
52189;DHT22;38162;45.926;13.608;2024-03-08T15:23:46;9.20;99.90
52189;DHT22;38162;45.926;13.608;2024-03-08T15:26:17;9.20;99.90
52189;DHT22;38162;45.926;13.608;2024-03-08T15:28:44;9.20;99.90
52189;DHT22;38162;45.926;13.608;2024-03-08T15:31:11;9.10;99.90
52189;DHT22;38162;45.926;13.608;2024-03-08T15:33:39;9.20;99.90
52189;DHT22;38162;45.926;13.608;2024-03-08T15:36:13;9.10;99.90
52189;DHT22;38162;45.926;13.608;2024-03-08T15:42:26;9.10;99.90
52189;DHT22;38162;45.926;13.608;2024-03-08T15:51:48;9.20;99.90
52189;DHT22;38162;45.926;13.608;2024-03-08T15:54:14;9.10;99.90
52189;DHT22;38162;45.926;13.608;2024-03-08T15:56:40;9.10;99.90
52189;DHT22;38162;45.926;13.608;2024-03-08T15:59:47;9.10;99.90
52189;DHT22;38162;45.926;13.608;2024-03-08T16:02:13;9.10;99.90
52189;DHT22;38162;45.926;13.608;2024-03-08T16:04:39;9.20;99.90
52189;DHT22;38162;45.926;13.608;2024-03-08T16:07:05;9.10;99.90
52189;DHT22;38162;45.926;13.608;2024-03-08T16:09:31;9.10;99.90
52189;DHT22;38162;45.926;13.608;2024-03-08T16:11:57;9.10;99.90
52189;DHT22;38162;45.926;13.608;2024-03-08T16:14:23;9.10;99.90
52189;DHT22;38162;45.926;13.608;2024-03-08T16:16:49;9.10;99.90
52189;DHT22;38162;45.926;13.608;2024-03-08T16:19:16;9.10;99.90
52189;DHT22;38162;45.926;13.608;2024-03-08T16:21:41;9.10;99.90
52189;DHT22;38162;45.926;13.608;2024-03-08T16:24:09;9.10;99.90
52189;DHT22;38162;45.926;13.608;2024-03-08T16:26:35;9.10;99.90
52189;DHT22;38162;45.926;13.608;2024-03-08T16:29:02;9.10;99.90
52189;DHT22;38162;45.926;13.608;2024-03-08T16:31:29;9.10;99.90
52189;DHT22;38162;45.926;13.608;2024-03-08T16:33:54;9.10;99.90
52189;DHT22;38162;45.926;13.608;2024-03-08T16:36:20;9.20;99.90
52189;DHT22;38162;45.926;13.608;2024-03-08T16:38:46;9.10;99.90
52189;DHT22;38162;45.926;13.608;2024-03-08T16:41:14;9.10;99.90
52189;DHT22;38162;45.926;13.608;2024-03-08T16:43:39;9.10;99.90
52189;DHT22;38162;45.926;13.608;2024-03-08T16:46:06;9.10;99.90
52189;DHT22;38162;45.926;13.608;2024-03-08T16:48:32;9.10;99.90
52189;DHT22;38162;45.926;13.608;2024-03-08T16:50:59;9.00;99.90
52189;DHT22;38162;45.926;13.608;2024-03-08T16:53:25;9.10;99.90
52189;DHT22;38162;45.926;13.608;2024-03-08T16:55:51;9.00;99.90
52189;DHT22;38162;45.926;13.608;2024-03-08T16:58:18;9.00;99.90
52189;DHT22;38162;45.926;13.608;2024-03-08T17:00:43;9.00;99.90
52189;DHT22;38162;45.926;13.608;2024-03-08T17:03:09;8.90;99.90
52189;DHT22;38162;45.926;13.608;2024-03-08T17:05:37;8.90;99.90
52189;DHT22;38162;45.926;13.608;2024-03-08T17:08:04;8.90;99.90
52189;DHT22;38162;45.926;13.608;2024-03-08T17:10:31;8.90;99.90
52189;DHT22;38162;45.926;13.608;2024-03-08T17:13:03;8.90;99.90
52189;DHT22;38162;45.926;13.608;2024-03-08T17:36:55;8.90;99.90
52189;DHT22;38162;45.926;13.608;2024-03-08T17:39:41;8.90;99.90
52189;DHT22;38162;45.926;13.608;2024-03-08T17:42:07;8.90;99.90
52189;DHT22;38162;45.926;13.608;2024-03-08T17:44:33;8.90;99.90
52189;DHT22;38162;45.926;13.608;2024-03-08T17:47:03;8.90;99.90
52189;DHT22;38162;45.926;13.608;2024-03-08T17:49:32;8.80;99.90
52189;DHT22;38162;45.926;13.608;2024-03-08T17:51:58;8.80;99.90
52189;DHT22;38162;45.926;13.608;2024-03-08T17:54:31;8.80;99.90
52189;DHT22;38162;45.926;13.608;2024-03-08T17:57:01;8.80;99.90
52189;DHT22;38162;45.926;13.608;2024-03-08T17:59:26;8.80;99.90
52189;DHT22;38162;45.926;13.608;2024-03-08T18:01:53;8.80;99.90
52189;DHT22;38162;45.926;13.608;2024-03-08T18:04:23;8.80;99.90
52189;DHT22;38162;45.926;13.608;2024-03-08T18:06:49;8.80;99.90
52189;DHT22;38162;45.926;13.608;2024-03-08T18:09:15;8.70;99.90
52189;DHT22;38162;45.926;13.608;2024-03-08T18:11:41;8.80;99.90
52189;DHT22;38162;45.926;13.608;2024-03-08T18:14:07;8.80;99.90
52189;DHT22;38162;45.926;13.608;2024-03-08T18:16:35;8.70;99.90
52189;DHT22;38162;45.926;13.608;2024-03-08T18:19:01;8.80;99.90
52189;DHT22;38162;45.926;13.608;2024-03-08T18:21:38;8.70;99.90
52189;DHT22;38162;45.926;13.608;2024-03-08T18:24:07;8.70;99.90
52189;DHT22;38162;45.926;13.608;2024-03-08T18:26:33;8.70;99.90
52189;DHT22;38162;45.926;13.608;2024-03-08T18:29:03;8.70;99.90
52189;DHT22;38162;45.926;13.608;2024-03-08T18:31:30;8.80;99.90
52189;DHT22;38162;45.926;13.608;2024-03-08T18:33:57;8.70;99.90
52189;DHT22;38162;45.926;13.608;2024-03-08T18:36:28;8.80;99.90
52189;DHT22;38162;45.926;13.608;2024-03-08T18:39:02;8.80;99.90
52189;DHT22;38162;45.926;13.608;2024-03-08T18:41:33;8.80;99.90
52189;DHT22;38162;45.926;13.608;2024-03-08T18:44:02;8.80;99.90
52189;DHT22;38162;45.926;13.608;2024-03-08T18:46:34;8.80;99.90